createdAt,value
2019-06-10T00:02:07.300Z,101292.55
2019-06-10T00:04:41.501Z,101283.63
2019-06-10T00:07:14.145Z,101283.55
2019-06-10T00:09:47.233Z,101278.31
2019-06-10T00:12:21.004Z,101275.55
2019-06-10T00:14:53.521Z,101274.56
2019-06-10T00:17:27.202Z,101270.73
2019-06-10T00:20:01.947Z,101268.10
2019-06-10T00:22:33.747Z,101264.66
2019-06-10T00:25:08.544Z,101257.69
2019-06-10T00:27:42.082Z,101264.56
2019-06-10T00:30:17.167Z,101258.98
2019-06-10T00:32:51.485Z,101258.76
2019-06-10T00:35:23.630Z,101263.99
2019-06-10T00:37:56.214Z,101260.60
2019-06-10T00:40:28.564Z,101255.86
2019-06-10T00:43:02.621Z,101258.12
2019-06-10T00:45:34.990Z,101257.03
2019-06-10T00:48:20.214Z,101252.00
2019-06-10T00:50:42.638Z,101255.62
2019-06-10T00:53:15.622Z,101254.93
2019-06-10T00:55:47.883Z,101251.16
2019-06-10T00:58:22.488Z,101249.52
2019-06-10T01:00:55.029Z,101253.49
2019-06-10T01:03:27.982Z,101252.50
2019-06-10T01:06:02.586Z,101257.03
2019-06-10T01:08:34.382Z,101259.78
2019-06-10T01:11:12.585Z,101255.09
2019-06-10T01:13:41.428Z,101256.61
2019-06-10T01:16:15.538Z,101263.31
2019-06-10T01:18:53.596Z,101258.74
2019-06-10T01:21:27.170Z,101261.93
2019-06-10T01:24:01.214Z,101257.80
2019-06-10T01:26:45.391Z,101257.70
2019-06-10T01:29:21.037Z,101262.23
2019-06-10T01:31:55.698Z,101265.55
2019-06-10T01:34:28.051Z,101275.22
2019-06-10T01:37:01.476Z,101271.97
2019-06-10T01:39:34.153Z,101271.68
2019-06-10T01:42:06.509Z,101265.20
2019-06-10T01:44:41.240Z,101268.95
2019-06-10T01:47:14.640Z,101275.71
2019-06-10T01:49:47.502Z,101273.17
2019-06-10T01:52:21.170Z,101277.09
2019-06-10T01:54:53.883Z,101271.06
2019-06-10T01:57:26.427Z,101267.23
2019-06-10T02:00:01.023Z,101262.70
2019-06-10T02:02:35.212Z,101269.72
2019-06-10T02:05:12.606Z,101267.11
2019-06-10T02:07:43.643Z,101268.45
2019-06-10T02:10:18.604Z,101273.64
2019-06-10T02:12:50.894Z,101274.53
2019-06-10T02:15:24.354Z,101273.89
2019-06-10T02:17:56.636Z,101276.98
2019-06-10T02:20:31.633Z,101271.08
2019-06-10T02:23:03.424Z,101278.30
2019-06-10T02:25:35.780Z,101281.25
2019-06-10T02:28:08.171Z,101284.79
2019-06-10T02:30:50.348Z,101288.91
2019-06-10T02:33:19.004Z,101285.08
2019-06-10T02:35:53.820Z,101273.64
2019-06-10T02:38:34.064Z,101282.33
2019-06-10T02:41:04.096Z,101278.81
2019-06-10T02:43:37.937Z,101278.97
2019-06-10T02:46:15.015Z,101270.05
2019-06-10T02:48:44.961Z,101272.59
2019-06-10T02:51:22.106Z,101273.38
2019-06-10T02:53:54.020Z,101278.66
2019-06-10T02:56:30.683Z,101285.28
2019-06-10T02:59:03.193Z,101292.41
2019-06-10T03:01:37.965Z,101298.08
2019-06-10T03:04:08.597Z,101302.17
2019-06-10T03:06:44.690Z,101301.66
2019-06-10T03:09:16.616Z,101300.52
2019-06-10T03:11:53.324Z,101301.30
2019-06-10T03:14:25.396Z,101296.42
2019-06-10T03:16:59.383Z,101299.96
2019-06-10T03:19:46.892Z,101301.66
2019-06-10T03:22:13.603Z,101299.96
2019-06-10T03:24:46.054Z,101298.47
2019-06-10T03:27:26.590Z,101296.28
2019-06-10T03:30:16.955Z,101296.42
2019-06-10T03:32:55.644Z,101300.02
2019-06-10T03:35:28.529Z,101294.58
2019-06-10T03:38:03.004Z,101295.19
2019-06-10T03:40:39.630Z,101292.21
2019-06-10T03:43:12.010Z,101294.53
2019-06-10T03:45:45.091Z,101295.63
2019-06-10T03:48:17.427Z,101296.12
2019-06-10T03:50:49.700Z,101294.69
2019-06-10T03:53:24.303Z,101292.20
2019-06-10T03:55:56.393Z,101296.23
2019-06-10T03:58:29.259Z,101290.50
2019-06-10T04:01:03.283Z,101292.70
2019-06-10T04:03:36.321Z,101289.16
2019-06-10T04:06:09.235Z,101303.05
2019-06-10T04:11:15.630Z,101299.61
2019-06-10T04:13:47.894Z,101300.46
2019-06-10T04:16:22.619Z,101303.94
2019-06-10T04:18:56.071Z,101305.14
2019-06-10T04:21:28.453Z,101307.63
2019-06-10T04:24:02.233Z,101308.55
2019-06-10T04:26:35.334Z,101312.81
2019-06-10T04:29:08.893Z,101315.09
2019-06-10T04:31:43.704Z,101308.56
2019-06-10T04:34:16.544Z,101312.09
2019-06-10T04:36:52.543Z,101304.87
2019-06-10T04:39:27.658Z,101303.14
2019-06-10T04:42:02.444Z,101304.77
2019-06-10T04:44:34.503Z,101303.39
2019-06-10T04:47:06.567Z,101303.74
2019-06-10T04:49:38.921Z,101301.55
2019-06-10T04:52:12.234Z,101298.70
2019-06-10T04:54:44.962Z,101302.66
2019-06-10T04:57:20.778Z,101305.13
2019-06-10T04:59:55.566Z,101308.91
2019-06-10T05:02:29.041Z,101316.98
2019-06-10T05:05:02.937Z,101314.48
2019-06-10T05:07:37.080Z,101320.06
2019-06-10T05:10:12.271Z,101311.52
2019-06-10T05:12:43.968Z,101308.44
2019-06-10T05:15:16.276Z,101309.13
2019-06-10T05:17:49.238Z,101303.81
2019-06-10T05:20:28.329Z,101304.86
2019-06-10T05:23:06.479Z,101301.81
2019-06-10T05:25:38.725Z,101306.36
2019-06-10T05:28:12.305Z,101307.13
2019-06-10T05:30:44.711Z,101306.62
2019-06-10T05:33:17.027Z,101308.66
2019-06-10T05:35:49.358Z,101309.08
2019-06-10T05:38:24.015Z,101319.02
2019-06-10T05:40:59.921Z,101315.16
2019-06-10T05:43:34.437Z,101319.30
2019-06-10T05:46:06.923Z,101316.30
2019-06-10T05:48:43.781Z,101320.36
2019-06-10T05:51:16.207Z,101326.86
2019-06-10T05:53:49.375Z,101328.43
2019-06-10T05:56:23.361Z,101325.75
2019-06-10T05:58:55.633Z,101324.05
2019-06-10T06:01:28.038Z,101326.35
2019-06-10T06:04:03.076Z,101327.44
2019-06-10T06:06:35.458Z,101324.07
2019-06-10T06:09:07.945Z,101318.67
2019-06-10T06:11:43.202Z,101321.21
2019-06-10T06:14:16.055Z,101322.29
2019-06-10T06:16:48.269Z,101321.51
2019-06-10T06:19:23.166Z,101318.98
2019-06-10T06:21:55.477Z,101320.28
2019-06-10T06:24:33.950Z,101323.20
2019-06-10T06:27:09.631Z,101311.77
2019-06-10T06:29:46.077Z,101316.92
2019-06-10T06:32:23.572Z,101317.40
2019-06-10T06:34:57.916Z,101315.58
2019-06-10T06:37:42.765Z,101322.89
2019-06-10T06:40:17.032Z,101320.30
2019-06-10T06:42:49.270Z,101317.29
2019-06-10T06:45:23.922Z,101325.00
2019-06-10T06:47:57.153Z,101325.20
2019-06-10T06:50:33.091Z,101323.53
2019-06-10T06:53:29.971Z,101327.78
2019-06-10T06:55:39.784Z,101321.55
2019-06-10T06:58:16.317Z,101324.27
2019-06-10T07:01:05.212Z,101326.33
2019-06-10T07:03:29.666Z,101322.34
2019-06-10T07:06:02.936Z,101323.69
2019-06-10T07:08:37.762Z,101322.33
2019-06-10T07:11:13.319Z,101320.68
2019-06-10T07:13:46.182Z,101316.45
2019-06-10T07:16:19.140Z,101315.44
2019-06-10T07:18:54.016Z,101317.80
2019-06-10T07:21:26.252Z,101315.42
2019-06-10T07:23:58.628Z,101316.22
2019-06-10T07:26:34.084Z,101312.60
2019-06-10T07:29:05.230Z,101314.80
2019-06-10T07:31:38.438Z,101315.05
2019-06-10T07:34:12.974Z,101312.08
2019-06-10T07:36:45.605Z,101313.70
2019-06-10T07:39:18.030Z,101313.33
2019-06-10T07:41:52.776Z,101313.67
2019-06-10T07:44:24.296Z,101311.87
2019-06-10T07:46:57.603Z,101309.28
2019-06-10T07:49:32.143Z,101304.81
2019-06-10T07:52:15.726Z,101301.02
2019-06-10T07:54:39.263Z,101290.94
2019-06-10T07:57:13.489Z,101292.06
2019-06-10T07:59:46.161Z,101293.84
2019-06-10T08:02:18.914Z,101290.55
2019-06-10T08:04:54.261Z,101283.66
2019-06-10T08:07:25.518Z,101286.71
2019-06-10T08:09:58.922Z,101282.70
2019-06-10T08:12:32.571Z,101279.33
2019-06-10T08:15:07.129Z,101281.45
2019-06-10T08:17:42.489Z,101279.98
2019-06-10T08:20:16.339Z,101285.60
2019-06-10T08:22:58.851Z,101276.63
2019-06-10T08:25:33.338Z,101273.94
2019-06-10T08:28:09.176Z,101270.48
2019-06-10T08:30:46.099Z,101272.69
2019-06-10T08:33:22.475Z,101269.70
2019-06-10T08:35:59.899Z,101266.63
2019-06-10T08:38:28.955Z,101266.25
2019-06-10T08:41:03.302Z,101270.27
2019-06-10T08:43:36.479Z,101268.27
2019-06-10T08:46:08.957Z,101268.59
2019-06-10T08:48:43.865Z,101263.83
2019-06-10T08:51:17.748Z,101261.36
2019-06-10T08:53:52.918Z,101260.66
2019-06-10T08:56:24.775Z,101256.05
2019-06-10T08:59:06.268Z,101255.67
2019-06-10T09:01:48.352Z,101250.70
2019-06-10T09:04:18.475Z,101249.44
2019-06-10T09:06:53.816Z,101248.84
2019-06-10T09:09:27.734Z,101251.83
2019-06-10T09:12:00.124Z,101249.40
2019-06-10T09:14:33.520Z,101238.13
2019-06-10T09:17:05.915Z,101240.02
2019-06-10T09:19:38.777Z,101243.16
2019-06-10T09:22:12.626Z,101232.35
2019-06-10T09:24:48.738Z,101233.72
2019-06-10T09:27:19.070Z,101228.12
2019-06-10T09:29:55.281Z,101233.08
2019-06-10T09:32:26.023Z,101227.91
2019-06-10T09:34:58.397Z,101225.91
2019-06-10T09:37:32.577Z,101217.98
2019-06-10T09:40:12.321Z,101223.58
2019-06-10T09:42:49.721Z,101220.45
2019-06-10T09:45:22.364Z,101220.37
2019-06-10T09:47:59.814Z,101216.33
2019-06-10T09:50:47.020Z,101214.14
2019-06-10T09:53:32.102Z,101219.50
2019-06-10T09:55:55.478Z,101207.66
2019-06-10T09:58:27.093Z,101205.02
2019-06-10T10:01:03.364Z,101199.87
2019-06-10T10:03:36.168Z,101206.61
2019-06-10T10:06:15.303Z,101205.44
2019-06-10T10:08:51.475Z,101199.39
2019-06-10T10:11:28.384Z,101199.60
2019-06-10T10:13:59.703Z,101194.44
2019-06-10T10:16:34.009Z,101192.11
2019-06-10T10:19:13.149Z,101191.09
2019-06-10T10:21:50.207Z,101195.36
2019-06-10T10:24:23.025Z,101190.32
2019-06-10T10:27:01.045Z,101191.02
2019-06-10T10:29:32.847Z,101177.23
2019-06-10T10:32:05.672Z,101174.30
2019-06-10T10:34:38.071Z,101175.05
2019-06-10T10:37:13.551Z,101176.89
2019-06-10T10:39:46.703Z,101165.84
2019-06-10T10:42:19.099Z,101167.66
2019-06-10T10:44:58.618Z,101166.36
2019-06-10T10:47:27.797Z,101165.55
2019-06-10T10:50:02.855Z,101164.27
2019-06-10T10:52:36.606Z,101158.26
2019-06-10T10:55:13.073Z,101153.20
2019-06-10T10:57:45.383Z,101149.02
2019-06-10T11:00:22.615Z,101150.19
2019-06-10T11:02:54.810Z,101147.61
2019-06-10T11:05:33.382Z,101149.17
2019-06-10T11:08:13.516Z,101149.98
2019-06-10T11:10:49.561Z,101151.04
2019-06-10T11:13:26.553Z,101150.20
2019-06-10T11:16:00.288Z,101145.25
2019-06-10T11:18:33.940Z,101136.51
2019-06-10T11:21:06.652Z,101144.80
2019-06-10T11:23:39.133Z,101141.11
2019-06-10T11:26:14.082Z,101134.56
2019-06-10T11:28:47.499Z,101136.42
2019-06-10T11:31:23.909Z,101133.84
2019-06-10T11:33:59.161Z,101126.95
2019-06-10T11:36:38.602Z,101128.94
2019-06-10T11:39:13.366Z,101131.85
2019-06-10T11:41:48.175Z,101123.64
2019-06-10T11:44:22.795Z,101124.60
2019-06-10T11:47:03.254Z,101120.12
2019-06-10T11:49:35.778Z,101117.59
2019-06-10T11:52:08.415Z,101109.62
2019-06-10T11:54:53.734Z,101104.83
2019-06-10T11:57:18.387Z,101107.34
2019-06-10T11:59:52.835Z,101097.78
2019-06-10T12:02:25.307Z,101097.75
2019-06-10T12:05:00.538Z,101093.31
2019-06-10T12:07:33.169Z,101085.38
2019-06-10T12:10:09.655Z,101084.42
2019-06-10T12:12:43.413Z,101081.74
2019-06-10T12:15:18.528Z,101090.74
2019-06-10T12:17:58.642Z,101087.45
2019-06-10T12:20:28.375Z,101088.11
2019-06-10T12:23:02.135Z,101083.84
2019-06-10T12:25:39.602Z,101091.81
2019-06-10T12:28:09.395Z,101083.06
2019-06-10T12:30:42.443Z,101078.22
2019-06-10T12:33:21.416Z,101075.07
2019-06-10T12:35:51.835Z,101069.52
2019-06-10T12:38:24.120Z,101064.98
2019-06-10T12:40:58.979Z,101063.98
2019-06-10T12:43:32.699Z,101059.20
2019-06-10T12:46:07.258Z,101047.90
2019-06-10T12:48:42.926Z,101060.63
2019-06-10T12:51:15.492Z,101064.20
2019-06-10T12:53:49.153Z,101063.44
2019-06-10T12:56:22.761Z,101053.51
2019-06-10T12:58:58.086Z,101053.80
2019-06-10T13:01:32.963Z,101054.70
2019-06-10T13:04:07.472Z,101045.05
2019-06-10T13:06:40.595Z,101044.33
2019-06-10T13:09:13.353Z,101042.86
2019-06-10T13:11:48.613Z,101045.16
2019-06-10T13:14:22.409Z,101041.84
2019-06-10T13:16:55.821Z,101048.50
2019-06-10T13:19:29.484Z,101044.64
2019-06-10T13:22:05.963Z,101042.88
2019-06-10T13:24:37.673Z,101035.81
2019-06-10T13:27:13.698Z,101041.89
2019-06-10T13:29:48.677Z,101036.89
2019-06-10T13:32:26.605Z,101035.47
2019-06-10T13:34:58.834Z,101039.65
2019-06-10T13:37:32.174Z,101030.45
2019-06-10T13:40:08.587Z,101038.41
2019-06-10T13:42:42.344Z,101031.89
2019-06-10T13:45:15.841Z,101033.05
2019-06-10T13:47:48.388Z,101040.36
2019-06-10T13:50:24.994Z,101034.19
2019-06-10T13:52:58.733Z,101023.87
2019-06-10T13:55:32.818Z,101025.34
2019-06-10T13:58:08.355Z,101018.67
2019-06-10T14:00:46.183Z,101021.03
2019-06-10T14:03:16.476Z,101018.32
2019-06-10T14:05:49.020Z,101014.53
2019-06-10T14:08:23.350Z,101011.08
2019-06-10T14:10:55.947Z,101005.86
2019-06-10T14:13:29.690Z,100996.19
2019-06-10T14:16:03.681Z,100992.56
2019-06-10T14:18:36.550Z,100997.73
2019-06-10T14:21:12.866Z,101002.93
2019-06-10T14:23:43.125Z,101000.30
2019-06-10T14:26:17.128Z,100999.51
2019-06-10T14:28:52.591Z,100993.20
2019-06-10T14:31:43.862Z,100997.64
2019-06-10T14:34:18.689Z,100992.52
2019-06-10T14:36:52.519Z,100991.90
2019-06-10T14:39:26.088Z,100996.53
2019-06-10T14:41:59.403Z,100990.83
2019-06-10T14:44:32.698Z,100992.19
2019-06-10T14:47:08.798Z,100988.64
2019-06-10T14:49:42.479Z,100987.28
2019-06-10T14:52:16.829Z,100988.31
2019-06-10T14:54:53.228Z,100991.27
2019-06-10T14:57:34.038Z,100987.26
2019-06-10T15:00:13.216Z,100991.38
2019-06-10T15:02:44.282Z,100995.08
2019-06-10T15:05:17.537Z,100997.25
2019-06-10T15:07:53.402Z,100995.89
2019-06-10T15:10:26.889Z,100995.05
2019-06-10T15:12:59.545Z,101000.80
2019-06-10T15:15:33.688Z,101000.44
2019-06-10T15:18:07.529Z,100993.09
2019-06-10T15:20:46.474Z,100999.00
2019-06-10T15:23:25.531Z,100996.50
2019-06-10T15:25:59.422Z,100993.37
2019-06-10T15:28:31.910Z,100991.25
2019-06-10T15:31:04.973Z,100994.59
2019-06-10T15:33:37.163Z,100995.88
2019-06-10T15:36:11.233Z,100991.25
2019-06-10T15:38:45.570Z,100987.98
2019-06-10T15:41:19.925Z,100987.77
2019-06-10T15:43:53.034Z,100987.06
2019-06-10T15:46:25.699Z,100987.88
2019-06-10T15:48:57.930Z,100984.50
2019-06-10T15:51:32.998Z,100990.48
2019-06-10T15:54:08.650Z,100985.95
2019-06-10T15:56:51.152Z,100985.33
2019-06-10T15:59:18.007Z,100990.44
2019-06-10T16:01:49.838Z,100984.34
2019-06-10T16:04:28.817Z,100983.21
2019-06-10T16:07:02.901Z,100980.48
2019-06-10T16:09:36.129Z,100979.52
2019-06-10T16:12:14.728Z,100978.80
2019-06-10T16:14:46.457Z,100977.18
2019-06-10T16:17:21.109Z,100979.28
2019-06-10T16:19:53.582Z,100984.62
2019-06-10T16:22:27.821Z,100976.13
2019-06-10T16:25:05.978Z,100980.20
2019-06-10T16:27:47.193Z,100982.41
2019-06-10T16:30:14.661Z,100974.96
2019-06-10T16:32:48.484Z,100973.91
2019-06-10T16:35:23.881Z,100975.97
2019-06-10T16:37:59.034Z,100974.38
2019-06-10T16:40:32.484Z,100979.55
2019-06-10T16:43:04.767Z,100981.70
2019-06-10T16:45:37.075Z,100978.31
2019-06-10T16:48:12.847Z,100977.92
2019-06-10T16:50:47.101Z,100974.19
2019-06-10T16:53:19.920Z,100977.61
2019-06-10T16:55:53.222Z,100980.30
2019-06-10T16:58:28.173Z,100974.81
2019-06-10T17:00:59.853Z,100975.58
2019-06-10T17:03:33.875Z,100980.14
2019-06-10T17:06:06.484Z,100981.98
2019-06-10T17:08:39.013Z,100986.02
2019-06-10T17:11:12.395Z,100984.92
2019-06-10T17:13:45.958Z,100988.47
2019-06-10T17:16:18.292Z,100986.75
2019-06-10T17:18:55.312Z,100991.13
2019-06-10T17:21:33.961Z,100994.95
2019-06-10T17:24:04.182Z,100994.38
2019-06-10T17:26:38.274Z,100989.25
2019-06-10T17:29:10.761Z,100995.38
2019-06-10T17:31:43.161Z,100986.63
2019-06-10T17:34:15.719Z,100983.34
2019-06-10T17:36:47.805Z,100990.20
2019-06-10T17:39:21.282Z,100995.86
2019-06-10T17:41:54.145Z,100992.75
2019-06-10T17:44:29.194Z,100995.32
2019-06-10T17:47:02.378Z,100994.94
2019-06-10T17:49:35.016Z,100995.91
2019-06-10T17:52:07.455Z,100999.20
2019-06-10T17:54:44.501Z,101000.17
2019-06-10T17:57:18.911Z,101007.09
2019-06-10T17:59:53.887Z,101010.27
2019-06-10T18:02:27.298Z,101009.14
2019-06-10T18:05:00.344Z,101018.03
2019-06-10T18:07:35.395Z,101020.34
2019-06-10T18:10:07.462Z,101021.02
2019-06-10T18:12:42.539Z,101017.45
2019-06-10T18:15:15.576Z,101022.02
2019-06-10T18:17:48.671Z,101027.50
2019-06-10T18:20:24.539Z,101025.77
2019-06-10T18:23:02.773Z,101023.30
2019-06-10T18:25:36.768Z,101023.02
2019-06-10T18:28:08.558Z,101027.34
2019-06-10T18:30:43.277Z,101028.66
2019-06-10T18:33:15.807Z,101032.45
2019-06-10T18:35:49.570Z,101033.21
2019-06-10T18:38:22.295Z,101035.28
2019-06-10T18:40:54.703Z,101035.00
2019-06-10T18:43:35.107Z,101033.03
2019-06-10T18:46:07.484Z,101038.75
2019-06-10T18:48:40.050Z,101040.86
2019-06-10T18:51:16.263Z,101035.46
2019-06-10T18:53:50.248Z,101037.31
2019-06-10T18:56:27.648Z,101037.86
2019-06-10T18:59:16.176Z,101036.41
2019-06-10T19:01:39.526Z,101036.23
2019-06-10T19:04:14.601Z,101035.75
2019-06-10T19:06:47.801Z,101037.97
2019-06-10T19:09:20.643Z,101040.20
2019-06-10T19:11:54.780Z,101037.54
2019-06-10T19:14:27.398Z,101039.47
2019-06-10T19:17:02.995Z,101039.17
2019-06-10T19:19:36.135Z,101037.84
2019-06-10T19:22:09.872Z,101033.09
2019-06-10T19:24:44.749Z,101039.92
2019-06-10T19:27:17.233Z,101041.73
2019-06-10T19:29:51.341Z,101038.42
2019-06-10T19:32:26.452Z,101043.16
2019-06-10T19:35:03.167Z,101037.07
2019-06-10T19:37:37.127Z,101033.00
2019-06-10T19:40:12.240Z,101033.39
2019-06-10T19:42:44.784Z,101028.30
2019-06-10T19:45:18.509Z,101032.88
2019-06-10T19:47:52.255Z,101038.32
2019-06-10T19:50:24.767Z,101032.95
2019-06-10T19:52:58.579Z,101035.48
2019-06-10T19:55:33.717Z,101034.50
2019-06-10T19:58:10.464Z,101040.56
2019-06-10T20:00:50.245Z,101038.90
2019-06-10T20:03:17.248Z,101045.42
2019-06-10T20:05:52.809Z,101041.88
2019-06-10T20:08:26.797Z,101039.69
2019-06-10T20:11:03.271Z,101039.08
2019-06-10T20:13:34.877Z,101045.16
2019-06-10T20:16:12.024Z,101044.64
2019-06-10T20:18:47.587Z,101046.20
2019-06-10T20:21:18.973Z,101035.61
2019-06-10T20:23:53.067Z,101039.53
2019-06-10T20:26:27.877Z,101037.84
2019-06-10T20:29:03.614Z,101041.26
2019-06-10T20:31:35.805Z,101034.85
2019-06-10T20:34:08.553Z,101039.06
2019-06-10T20:36:43.479Z,101026.94
2019-06-10T20:39:15.514Z,101029.47
2019-06-10T20:41:51.945Z,101026.76
2019-06-10T20:44:23.046Z,101030.49
2019-06-10T20:46:56.094Z,101024.59
2019-06-10T20:49:33.367Z,101023.42
2019-06-10T20:52:11.514Z,101030.19
2019-06-10T20:54:43.378Z,101028.17
2019-06-10T20:57:16.753Z,101027.98
2019-06-10T20:59:49.860Z,101029.19
2019-06-10T21:02:22.717Z,101022.95
2019-06-10T21:04:56.234Z,101019.39
2019-06-10T21:07:28.869Z,101012.98
2019-06-10T21:10:03.162Z,101015.86
2019-06-10T21:12:36.577Z,101015.36
2019-06-10T21:15:08.992Z,101018.75
2019-06-10T21:17:43.337Z,101016.03
2019-06-10T21:20:15.951Z,101023.48
2019-06-10T21:22:49.018Z,101017.89
2019-06-10T21:25:24.455Z,101022.99
2019-06-10T21:28:02.749Z,101029.92
2019-06-10T21:30:40.834Z,101031.77
2019-06-10T21:33:08.216Z,101030.75
2019-06-10T21:35:44.109Z,101037.02
2019-06-10T21:38:16.215Z,101029.56
2019-06-10T21:40:49.771Z,101029.22
2019-06-10T21:43:22.511Z,101030.55
2019-06-10T21:45:57.653Z,101026.81
2019-06-10T21:48:37.740Z,101023.45
2019-06-10T21:51:13.368Z,101025.14
2019-06-10T21:53:46.950Z,101025.14
2019-06-10T21:56:19.344Z,101025.46
2019-06-10T21:58:54.135Z,101025.95
2019-06-10T22:01:27.509Z,101022.03
2019-06-10T22:04:04.249Z,101020.72
2019-06-10T22:06:35.558Z,101029.17
2019-06-10T22:09:08.316Z,101024.78
2019-06-10T22:11:42.271Z,101024.09
2019-06-10T22:14:17.401Z,101026.30
2019-06-10T22:16:50.930Z,101021.38
2019-06-10T22:19:23.881Z,101020.55
2019-06-10T22:21:56.858Z,101014.61
2019-06-10T22:24:31.013Z,101017.31
2019-06-10T22:27:04.044Z,101024.74
2019-06-10T22:29:36.419Z,101024.53
2019-06-10T22:32:12.840Z,101026.17
2019-06-10T22:34:46.056Z,101022.96
2019-06-10T22:37:18.747Z,101023.78
2019-06-10T22:39:52.618Z,101017.22
2019-06-10T22:42:26.695Z,101014.52
2019-06-10T22:45:03.584Z,101018.20
2019-06-10T22:47:34.631Z,101020.37
2019-06-10T22:50:08.104Z,101019.48
2019-06-10T22:52:42.578Z,101021.84
2019-06-10T22:55:15.070Z,101024.55
2019-06-10T22:57:48.679Z,101026.56
2019-06-10T23:00:24.993Z,101021.84
2019-06-10T23:03:19.024Z,101023.53
2019-06-10T23:05:52.353Z,101024.84
2019-06-10T23:08:25.315Z,101022.48
2019-06-10T23:10:58.571Z,101029.20
2019-06-10T23:13:33.096Z,101032.54
2019-06-10T23:16:05.380Z,101024.20
2019-06-10T23:18:37.888Z,101026.72
2019-06-10T23:21:13.291Z,101023.78
2019-06-10T23:23:44.467Z,101016.16
2019-06-10T23:26:16.816Z,101022.23
2019-06-10T23:28:49.804Z,101022.91
2019-06-10T23:31:25.633Z,101020.58
2019-06-10T23:33:58.431Z,101019.91
2019-06-10T23:36:32.832Z,101009.33
2019-06-10T23:39:07.491Z,101008.02
2019-06-10T23:41:39.891Z,101010.33
2019-06-10T23:44:12.258Z,101010.96
2019-06-10T23:46:44.700Z,101004.93
2019-06-10T23:49:18.915Z,101006.58
2019-06-10T23:51:54.072Z,101004.20
2019-06-10T23:54:25.889Z,101000.33
2019-06-10T23:56:58.863Z,100999.73
2019-06-10T23:59:33.219Z,100996.58
